createdAt,value
2018-05-31T00:01:26.556Z,30.33
2018-05-31T00:03:29.772Z,26.20
2018-05-31T00:05:32.272Z,29.50
2018-05-31T00:07:34.922Z,31.53
2018-05-31T00:09:37.461Z,31.57
2018-05-31T00:11:39.904Z,41.80
2018-05-31T00:13:42.341Z,40.60
2018-05-31T00:15:44.841Z,31.37
2018-05-31T00:17:47.286Z,35.40
2018-05-31T00:19:49.717Z,33.23
2018-05-31T00:21:52.953Z,29.20
2018-05-31T00:23:55.421Z,41.20
2018-05-31T00:25:57.884Z,39.50
2018-05-31T00:28:00.370Z,30.53
2018-05-31T00:30:02.831Z,41.57
2018-05-31T00:32:05.271Z,35.13
2018-05-31T00:34:07.727Z,32.70
2018-05-31T00:36:10.961Z,27.73
2018-05-31T00:38:13.424Z,22.60
2018-05-31T00:40:15.869Z,23.70
2018-05-31T00:42:18.481Z,24.47
2018-05-31T00:44:20.941Z,28.83
2018-05-31T00:46:23.400Z,30.30
2018-05-31T00:48:25.846Z,33.13
2018-05-31T00:50:28.286Z,27.33
2018-05-31T00:52:30.776Z,30.40
2018-05-31T00:54:34.033Z,31.00
2018-05-31T00:56:36.481Z,22.10
2018-05-31T00:58:38.928Z,15.90
2018-05-31T01:00:41.405Z,18.60
2018-05-31T01:02:43.877Z,23.60
2018-05-31T01:04:46.956Z,24.27
2018-05-31T01:06:49.396Z,24.53
2018-05-31T01:08:52.637Z,28.13
2018-05-31T01:10:55.117Z,28.57
2018-05-31T01:12:57.576Z,30.27
2018-05-31T01:15:00.040Z,33.97
2018-05-31T01:17:02.585Z,32.80
2018-05-31T01:19:06.235Z,26.87
2018-05-31T01:21:08.673Z,29.33
2018-05-31T01:23:11.993Z,26.60
2018-05-31T01:25:14.446Z,28.50
2018-05-31T01:27:17.022Z,28.67
2018-05-31T01:29:19.520Z,28.53
2018-05-31T01:31:22.807Z,29.97
2018-05-31T01:33:25.341Z,31.13
2018-05-31T01:35:27.797Z,36.60
2018-05-31T01:37:30.254Z,34.67
2018-05-31T01:39:32.709Z,42.50
2018-05-31T01:41:36.004Z,44.50
2018-05-31T01:43:38.545Z,48.07
2018-05-31T01:45:40.973Z,47.23
2018-05-31T01:47:43.464Z,42.27
2018-05-31T01:49:45.922Z,34.10
2018-05-31T01:51:48.435Z,32.57
2018-05-31T01:53:50.901Z,33.93
2018-05-31T01:55:53.396Z,31.77
2018-05-31T01:57:56.616Z,34.10
2018-05-31T01:59:59.102Z,36.37
2018-05-31T02:02:01.572Z,33.63
2018-05-31T02:04:04.042Z,35.27
2018-05-31T02:06:06.564Z,32.70
2018-05-31T02:08:09.768Z,41.60
2018-05-31T02:10:12.278Z,19.57
2018-05-31T02:12:15.807Z,22.77
2018-05-31T02:14:18.269Z,21.83
2018-05-31T02:16:21.489Z,22.13
2018-05-31T02:18:24.165Z,19.67
2018-05-31T02:20:26.593Z,21.50
2018-05-31T02:22:29.057Z,35.93
2018-05-31T02:24:31.514Z,31.37
2018-05-31T02:26:33.964Z,32.40
2018-05-31T02:28:36.416Z,32.00
2018-05-31T02:30:39.636Z,31.67
2018-05-31T02:32:42.099Z,34.33
2018-05-31T02:34:44.556Z,30.67
2018-05-31T02:36:47.035Z,29.70
2018-05-31T02:38:49.505Z,30.57
2018-05-31T02:40:51.961Z,34.23
2018-05-31T02:42:54.464Z,32.47
2018-05-31T02:44:56.953Z,38.70
2018-05-31T02:47:03.300Z,33.03
2018-05-31T02:49:05.847Z,30.73
2018-05-31T02:51:08.322Z,33.20
2018-05-31T02:53:10.785Z,33.97
2018-05-31T02:55:13.264Z,35.83
2018-05-31T02:57:15.764Z,35.03
2018-05-31T02:59:18.249Z,37.43
2018-05-31T03:01:21.467Z,42.57
2018-05-31T03:03:23.935Z,43.97
2018-05-31T03:05:26.365Z,47.03
2018-05-31T03:07:28.900Z,47.23
2018-05-31T03:09:31.342Z,45.13
2018-05-31T03:11:33.777Z,48.20
2018-05-31T03:13:36.304Z,45.00
2018-05-31T03:15:38.814Z,44.57
2018-05-31T03:17:41.256Z,51.97
2018-05-31T03:19:43.698Z,47.50
2018-05-31T03:21:46.197Z,46.00
2018-05-31T03:23:48.656Z,44.00
2018-05-31T03:25:51.137Z,44.97
2018-05-31T03:27:53.596Z,43.83
2018-05-31T03:29:56.080Z,42.70
2018-05-31T03:31:58.543Z,49.83
2018-05-31T03:34:01.133Z,44.57
2018-05-31T03:36:03.601Z,44.93
2018-05-31T03:38:06.073Z,41.20
2018-05-31T03:40:08.524Z,40.67
2018-05-31T03:42:10.997Z,38.13
2018-05-31T03:44:13.520Z,40.70
2018-05-31T03:46:16.769Z,39.50
2018-05-31T03:48:19.221Z,44.23
2018-05-31T03:50:21.720Z,41.40
2018-05-31T03:52:24.192Z,40.47
2018-05-31T03:54:28.196Z,40.13
2018-05-31T03:56:30.658Z,39.30
2018-05-31T03:58:33.221Z,81.83
2018-05-31T04:00:35.701Z,47.93
2018-05-31T04:02:38.189Z,40.20
2018-05-31T04:04:40.637Z,34.63
2018-05-31T04:06:43.201Z,29.20
2018-05-31T04:08:45.688Z,36.40
2018-05-31T04:10:48.150Z,53.63
2018-05-31T04:12:50.612Z,28.17
2018-05-31T04:14:53.102Z,29.27
2018-05-31T04:16:55.569Z,28.43
2018-05-31T04:18:58.133Z,29.20
2018-05-31T04:21:00.585Z,27.57
2018-05-31T04:23:03.080Z,25.83
2018-05-31T04:25:05.572Z,23.93
2018-05-31T04:27:08.016Z,26.83
2018-05-31T04:29:10.520Z,34.30
2018-05-31T04:31:13.293Z,22.17
2018-05-31T04:33:15.740Z,23.10
2018-05-31T04:35:18.215Z,30.87
2018-05-31T04:37:20.739Z,28.90
2018-05-31T04:39:23.517Z,30.70
2018-05-31T04:41:25.979Z,27.23
2018-05-31T04:43:29.196Z,21.23
2018-05-31T04:45:31.651Z,24.90
2018-05-31T04:47:34.119Z,32.70
2018-05-31T04:49:36.585Z,34.77
2018-05-31T04:51:39.149Z,36.50
2018-05-31T04:53:41.634Z,17.93
2018-05-31T04:55:44.100Z,52.10
2018-05-31T04:57:46.574Z,53.43
2018-05-31T04:59:49.056Z,50.63
2018-05-31T05:01:51.529Z,50.17
2018-05-31T05:03:53.993Z,47.33
2018-05-31T05:05:56.465Z,46.23
2018-05-31T05:07:58.928Z,49.03
2018-05-31T05:10:01.398Z,45.93
2018-05-31T05:12:03.879Z,46.20
2018-05-31T05:14:06.325Z,44.37
2018-05-31T05:16:08.855Z,44.40
2018-05-31T05:18:11.403Z,41.67
2018-05-31T05:20:13.882Z,41.90
2018-05-31T05:22:16.374Z,39.50
2018-05-31T05:24:19.609Z,40.77
2018-05-31T05:26:22.124Z,40.30
2018-05-31T05:28:24.546Z,38.87
2018-05-31T05:30:27.045Z,38.00
2018-05-31T05:32:29.571Z,36.23
2018-05-31T05:34:31.999Z,34.73
2018-05-31T05:36:35.268Z,34.30
2018-05-31T05:38:38.766Z,34.97
2018-05-31T05:40:41.225Z,31.87
2018-05-31T05:42:43.688Z,34.47
2018-05-31T05:44:46.124Z,32.40
2018-05-31T05:46:48.742Z,32.27
2018-05-31T05:48:51.214Z,32.57
2018-05-31T05:50:53.685Z,32.27
2018-05-31T05:52:57.198Z,32.20
2018-05-31T05:54:59.744Z,29.70
2018-05-31T05:57:02.228Z,28.80
2018-05-31T05:59:05.219Z,28.93
2018-05-31T06:01:07.682Z,27.43
2018-05-31T06:03:10.693Z,25.67
2018-05-31T06:05:13.964Z,25.00
2018-05-31T06:07:16.448Z,22.93
2018-05-31T06:09:18.889Z,24.03
2018-05-31T06:11:21.371Z,22.23
2018-05-31T06:13:23.837Z,22.93
2018-05-31T06:15:26.275Z,22.23
2018-05-31T06:17:28.709Z,21.13
2018-05-31T06:19:32.009Z,19.50
2018-05-31T06:21:35.238Z,19.90
2018-05-31T06:23:37.806Z,20.40
2018-05-31T06:25:40.252Z,19.43
2018-05-31T06:27:42.918Z,20.87
2018-05-31T06:29:45.368Z,20.30
2018-05-31T06:31:48.603Z,18.80
2018-05-31T06:33:51.088Z,19.10
2018-05-31T06:35:53.555Z,18.30
2018-05-31T06:37:56.028Z,16.70
2018-05-31T06:39:58.502Z,16.53
2018-05-31T06:42:01.010Z,17.03
2018-05-31T06:44:04.248Z,16.10
2018-05-31T06:46:06.690Z,16.87
2018-05-31T06:48:09.144Z,16.70
2018-05-31T06:50:12.360Z,18.20
2018-05-31T06:52:14.798Z,17.07
2018-05-31T06:54:18.052Z,18.17
2018-05-31T06:56:20.596Z,18.60
2018-05-31T06:58:23.051Z,20.40
2018-05-31T07:00:25.489Z,19.43
2018-05-31T07:02:27.989Z,21.60
2018-05-31T07:04:30.492Z,20.63
2018-05-31T07:06:32.933Z,20.50
2018-05-31T07:08:35.397Z,20.37
2018-05-31T07:10:37.901Z,20.23
2018-05-31T07:12:40.374Z,20.57
2018-05-31T07:14:42.842Z,20.33
2018-05-31T07:16:45.320Z,19.60
2018-05-31T07:18:48.568Z,18.40
2018-05-31T07:20:51.009Z,21.73
2018-05-31T07:22:54.217Z,20.70
2018-05-31T07:24:57.573Z,22.33
2018-05-31T07:27:00.030Z,19.27
2018-05-31T07:29:02.485Z,20.70
2018-05-31T07:31:04.963Z,21.27
2018-05-31T07:33:07.433Z,20.87
2018-05-31T07:35:09.917Z,22.40
2018-05-31T07:37:12.374Z,20.97
2018-05-31T07:39:15.653Z,20.37
2018-05-31T07:41:18.129Z,21.07
2018-05-31T07:43:20.600Z,21.43
2018-05-31T07:45:23.060Z,21.60
2018-05-31T07:47:25.528Z,20.00
2018-05-31T07:49:28.016Z,20.30
2018-05-31T07:51:30.485Z,21.50
2018-05-31T07:53:32.940Z,23.37
2018-05-31T07:55:35.585Z,21.77
2018-05-31T07:57:38.025Z,22.80
2018-05-31T07:59:40.472Z,22.83
2018-05-31T08:01:42.961Z,20.57
2018-05-31T08:03:46.235Z,20.70
2018-05-31T08:05:48.855Z,22.10
2018-05-31T08:07:51.272Z,21.40
2018-05-31T08:09:53.787Z,24.77
2018-05-31T08:11:56.237Z,24.13
2018-05-31T08:13:58.690Z,21.47
2018-05-31T08:16:01.147Z,20.80
2018-05-31T08:18:04.452Z,22.30
2018-05-31T08:20:07.665Z,20.23
2018-05-31T08:22:10.870Z,21.30
2018-05-31T08:24:13.349Z,19.40
2018-05-31T08:26:15.836Z,19.13
2018-05-31T08:28:18.277Z,19.37
2018-05-31T08:30:20.770Z,19.67
2018-05-31T08:32:23.225Z,20.30
2018-05-31T08:34:25.652Z,21.80
2018-05-31T08:36:28.905Z,19.80
2018-05-31T08:38:31.347Z,21.93
2018-05-31T08:40:34.549Z,21.03
2018-05-31T08:42:37.005Z,20.23
2018-05-31T08:44:39.541Z,20.60
2018-05-31T08:46:42.077Z,20.00
2018-05-31T08:48:44.523Z,17.83
2018-05-31T08:50:47.016Z,18.53
2018-05-31T08:52:49.475Z,18.17
2018-05-31T08:54:51.933Z,16.70
2018-05-31T08:56:54.388Z,16.00
2018-05-31T08:58:57.589Z,16.10
2018-05-31T09:01:00.042Z,16.30
2018-05-31T09:03:03.243Z,17.00
2018-05-31T09:05:05.676Z,17.17
2018-05-31T09:07:08.121Z,15.10
2018-05-31T09:09:10.587Z,14.20
2018-05-31T09:11:13.024Z,14.90
2018-05-31T09:13:15.480Z,15.90
2018-05-31T09:15:18.699Z,15.30
2018-05-31T09:17:21.148Z,17.27
2018-05-31T09:19:23.587Z,16.17
2018-05-31T09:21:26.028Z,14.37
2018-05-31T09:23:28.468Z,12.03
2018-05-31T09:25:30.920Z,11.53
2018-05-31T09:27:33.420Z,11.10
2018-05-31T09:29:35.899Z,10.50
2018-05-31T09:31:38.344Z,11.70
2018-05-31T09:33:40.785Z,10.93
2018-05-31T09:35:44.000Z,9.93
2018-05-31T09:37:46.441Z,9.73
2018-05-31T09:39:49.676Z,9.90
2018-05-31T09:41:52.128Z,10.17
2018-05-31T09:43:54.572Z,10.20
2018-05-31T09:45:57.792Z,9.87
2018-05-31T09:48:00.322Z,10.70
2018-05-31T09:50:05.044Z,9.83
2018-05-31T09:52:08.774Z,8.50
2018-05-31T09:54:12.053Z,9.43
2018-05-31T09:56:14.521Z,10.20
2018-05-31T09:58:17.781Z,10.03
2018-05-31T10:00:20.430Z,10.00
2018-05-31T10:02:22.889Z,9.43
2018-05-31T10:04:25.339Z,11.70
2018-05-31T10:06:27.806Z,11.77
2018-05-31T10:08:30.240Z,9.77
2018-05-31T10:10:32.764Z,10.53
2018-05-31T10:12:35.229Z,10.10
2018-05-31T10:14:37.829Z,9.60
2018-05-31T10:16:40.292Z,9.50
2018-05-31T10:18:42.753Z,9.70
2018-05-31T10:20:45.215Z,8.77
2018-05-31T10:22:47.703Z,7.37
2018-05-31T10:24:50.148Z,9.93
2018-05-31T10:26:52.584Z,8.87
2018-05-31T10:28:55.797Z,9.97
2018-05-31T10:30:58.375Z,9.40
2018-05-31T10:33:00.860Z,10.60
2018-05-31T10:35:03.357Z,10.97
2018-05-31T10:37:05.886Z,10.20
2018-05-31T10:39:09.138Z,9.73
2018-05-31T10:41:13.077Z,9.33
2018-05-31T10:43:15.522Z,10.40
2018-05-31T10:45:18.746Z,9.47
2018-05-31T10:47:21.231Z,10.00
2018-05-31T10:49:23.701Z,8.67
2018-05-31T10:51:26.172Z,9.80
2018-05-31T10:53:28.629Z,9.77
2018-05-31T10:55:31.098Z,9.30
2018-05-31T10:57:33.524Z,9.33
2018-05-31T10:59:36.738Z,10.67
2018-05-31T11:01:39.253Z,9.47
2018-05-31T11:03:41.701Z,9.00
2018-05-31T11:05:44.149Z,9.57
2018-05-31T11:07:46.585Z,9.67
2018-05-31T11:09:49.109Z,10.00
2018-05-31T11:11:52.129Z,10.27
2018-05-31T11:13:54.544Z,11.60
2018-05-31T11:15:56.983Z,11.07
2018-05-31T11:18:00.851Z,11.70
2018-05-31T11:20:03.304Z,9.93
2018-05-31T11:22:05.755Z,10.57
2018-05-31T11:24:08.191Z,10.83
2018-05-31T11:26:10.788Z,11.30
2018-05-31T11:28:13.289Z,9.47
2018-05-31T11:30:15.757Z,9.20
2018-05-31T11:32:18.209Z,8.90
2018-05-31T11:34:20.696Z,10.47
2018-05-31T11:36:23.164Z,9.17
2018-05-31T11:38:25.640Z,8.33
2018-05-31T11:40:28.108Z,9.23
2018-05-31T11:42:30.830Z,9.17
2018-05-31T11:44:33.406Z,8.90
2018-05-31T11:46:35.939Z,9.17
2018-05-31T11:48:38.357Z,8.67
2018-05-31T11:50:41.661Z,8.00
2018-05-31T11:52:44.866Z,8.60
2018-05-31T11:54:47.305Z,9.20
2018-05-31T11:56:50.509Z,9.00
2018-05-31T11:58:52.940Z,9.40
2018-05-31T12:00:55.468Z,9.20
2018-05-31T12:02:57.921Z,9.23
2018-05-31T12:05:00.353Z,8.50
2018-05-31T12:07:02.872Z,7.57
2018-05-31T12:09:05.961Z,7.67
2018-05-31T12:11:08.395Z,8.43
2018-05-31T12:13:11.637Z,7.70
2018-05-31T12:15:14.071Z,7.50
2018-05-31T12:17:16.517Z,6.83
2018-05-31T12:19:18.941Z,7.73
2018-05-31T12:21:21.364Z,7.53
2018-05-31T12:23:24.572Z,8.37
2018-05-31T12:25:27.028Z,7.10
2018-05-31T12:27:30.222Z,6.40
2018-05-31T12:29:32.648Z,6.90
2018-05-31T12:31:35.076Z,7.23
2018-05-31T12:33:37.541Z,8.83
2018-05-31T12:35:40.001Z,8.27
2018-05-31T12:37:42.486Z,7.53
2018-05-31T12:39:45.245Z,7.27
2018-05-31T12:41:47.736Z,7.40
2018-05-31T12:43:50.207Z,7.20
2018-05-31T12:45:52.636Z,8.00
2018-05-31T12:47:55.864Z,8.60
2018-05-31T12:49:58.296Z,8.40
2018-05-31T12:52:01.542Z,7.60
2018-05-31T12:54:03.971Z,7.70
2018-05-31T12:56:06.414Z,7.60
2018-05-31T12:58:09.629Z,8.10
2018-05-31T13:00:12.130Z,7.03
2018-05-31T13:02:14.593Z,7.47
2018-05-31T13:04:17.018Z,7.97
2018-05-31T13:06:20.225Z,8.37
2018-05-31T13:08:22.656Z,7.90
2018-05-31T13:10:25.089Z,8.83
2018-05-31T13:12:27.561Z,8.20
2018-05-31T13:14:30.020Z,8.30
2018-05-31T13:16:32.459Z,8.77
2018-05-31T13:18:35.673Z,7.60
2018-05-31T13:20:38.148Z,8.97
2018-05-31T13:22:40.602Z,8.47
2018-05-31T13:24:43.101Z,8.60
2018-05-31T13:26:45.593Z,9.00
2018-05-31T13:28:48.032Z,7.70
2018-05-31T13:30:50.471Z,7.90
2018-05-31T13:32:53.688Z,7.60
2018-05-31T13:34:56.156Z,7.87
2018-05-31T13:36:58.628Z,8.43
2018-05-31T13:39:01.100Z,8.00
2018-05-31T13:41:03.540Z,7.67
2018-05-31T13:43:06.831Z,6.30
2018-05-31T13:45:09.198Z,7.30
2018-05-31T13:47:12.422Z,7.47
2018-05-31T13:49:14.870Z,7.80
2018-05-31T13:51:17.298Z,7.47
2018-05-31T13:53:19.722Z,8.13
2018-05-31T13:55:22.185Z,8.20
2018-05-31T13:57:24.669Z,7.13
2018-05-31T13:59:27.267Z,6.00
2018-05-31T14:01:29.686Z,6.63
2018-05-31T14:03:32.125Z,7.20
2018-05-31T14:05:35.352Z,6.17
2018-05-31T14:07:37.834Z,6.33
2018-05-31T14:09:40.312Z,6.00
2018-05-31T14:11:42.779Z,6.20
2018-05-31T14:13:45.222Z,5.97
2018-05-31T14:15:47.648Z,6.07
2018-05-31T14:17:50.234Z,6.53
2018-05-31T14:19:52.769Z,5.97
2018-05-31T14:21:55.200Z,6.07
2018-05-31T14:23:57.631Z,6.10
2018-05-31T14:26:00.060Z,7.20
2018-05-31T14:28:02.518Z,7.17
2018-05-31T14:30:04.944Z,7.57
2018-05-31T14:32:08.508Z,7.30
2018-05-31T14:34:10.953Z,8.03
2018-05-31T14:36:13.392Z,9.27
2018-05-31T14:38:18.725Z,8.37
2018-05-31T14:40:21.240Z,9.23
2018-05-31T14:42:23.713Z,9.57
2018-05-31T14:44:26.172Z,9.17
2018-05-31T14:46:28.596Z,11.00
2018-05-31T14:48:31.044Z,10.80
2018-05-31T14:50:33.508Z,11.53
2018-05-31T14:52:35.969Z,10.93
2018-05-31T14:54:38.477Z,10.37
2018-05-31T14:56:40.905Z,10.70
2018-05-31T14:58:43.364Z,10.33
2018-05-31T15:00:45.844Z,9.50
2018-05-31T15:02:48.301Z,9.27
2018-05-31T15:04:50.800Z,9.93
2018-05-31T15:06:53.240Z,9.57
2018-05-31T15:08:55.728Z,10.30
2018-05-31T15:10:58.181Z,12.60
2018-05-31T15:13:00.609Z,15.90
2018-05-31T15:15:03.053Z,16.30
2018-05-31T15:17:05.506Z,13.43
2018-05-31T15:19:07.969Z,14.67
2018-05-31T15:21:10.432Z,15.93
2018-05-31T15:23:12.898Z,20.50
2018-05-31T15:25:15.350Z,19.17
2018-05-31T15:27:18.600Z,20.50
2018-05-31T15:29:21.039Z,18.17
2018-05-31T15:31:23.481Z,17.10
2018-05-31T15:33:25.985Z,15.73
2018-05-31T15:35:28.470Z,16.27
2018-05-31T15:37:30.902Z,18.43
2018-05-31T15:39:33.338Z,17.87
2018-05-31T15:41:36.580Z,18.20
2018-05-31T15:43:39.036Z,17.70
2018-05-31T15:45:41.524Z,18.23
2018-05-31T15:47:44.704Z,17.37
2018-05-31T15:49:47.190Z,17.63
2018-05-31T15:51:49.859Z,16.30
2018-05-31T15:53:52.503Z,16.03
2018-05-31T15:55:54.940Z,17.47
2018-05-31T15:57:58.277Z,16.10
2018-05-31T16:00:00.762Z,14.57
2018-05-31T16:02:03.244Z,16.50
2018-05-31T16:04:05.696Z,16.97
2018-05-31T16:06:08.133Z,17.30
2018-05-31T16:08:10.649Z,15.50
2018-05-31T16:10:13.094Z,17.80
2018-05-31T16:12:15.683Z,16.43
2018-05-31T16:14:18.128Z,16.70
2018-05-31T16:16:20.563Z,16.20
2018-05-31T16:18:23.885Z,15.03
2018-05-31T16:20:26.376Z,16.20
2018-05-31T16:22:28.826Z,14.80
2018-05-31T16:24:31.264Z,15.00
2018-05-31T16:26:33.700Z,14.57
2018-05-31T16:28:36.147Z,13.30
2018-05-31T16:30:38.580Z,13.57
2018-05-31T16:32:41.780Z,13.40
2018-05-31T16:34:44.236Z,13.00
2018-05-31T16:36:47.431Z,12.63
2018-05-31T16:38:50.636Z,13.50
2018-05-31T16:40:53.096Z,13.20
2018-05-31T16:42:56.396Z,12.40
2018-05-31T16:44:59.604Z,11.70
2018-05-31T16:47:02.042Z,10.20
2018-05-31T16:49:04.501Z,10.07
2018-05-31T16:51:07.720Z,10.33
2018-05-31T16:53:10.196Z,11.53
2018-05-31T16:55:12.643Z,10.80
2018-05-31T16:57:15.141Z,10.13
2018-05-31T16:59:17.649Z,12.20
2018-05-31T17:01:20.801Z,10.20
2018-05-31T17:03:23.245Z,10.00
2018-05-31T17:05:26.030Z,9.50
2018-05-31T17:07:29.213Z,9.60
2018-05-31T17:09:31.737Z,10.20
2018-05-31T17:11:34.204Z,10.63
2018-05-31T17:13:36.784Z,11.20
2018-05-31T17:15:39.224Z,11.33
2018-05-31T17:17:42.013Z,11.00
2018-05-31T17:19:44.460Z,14.30
2018-05-31T17:21:46.927Z,11.40
2018-05-31T17:23:49.358Z,12.37
2018-05-31T17:25:52.568Z,11.73
2018-05-31T17:27:55.075Z,12.43
2018-05-31T17:29:57.528Z,11.13
2018-05-31T17:32:00.005Z,12.50
2018-05-31T17:34:02.741Z,12.80
2018-05-31T17:36:05.965Z,14.40
2018-05-31T17:38:08.444Z,14.73
2018-05-31T17:40:10.905Z,14.60
2018-05-31T17:42:13.354Z,15.10
2018-05-31T17:44:15.784Z,14.50
2018-05-31T17:46:18.337Z,15.30
2018-05-31T17:48:20.786Z,15.83
2018-05-31T17:50:23.237Z,16.77
2018-05-31T17:52:25.754Z,15.50
2018-05-31T17:54:28.203Z,17.23
2018-05-31T17:56:30.650Z,16.60
2018-05-31T17:58:33.141Z,19.67
2018-05-31T18:00:35.609Z,17.60
2018-05-31T18:02:38.045Z,19.30
2018-05-31T18:04:40.489Z,20.10
2018-05-31T18:06:43.018Z,19.27
2018-05-31T18:08:45.541Z,35.27
2018-05-31T18:10:48.085Z,34.03
2018-05-31T18:12:50.529Z,21.90
2018-05-31T18:14:53.051Z,27.10
2018-05-31T18:16:56.292Z,19.50
2018-05-31T18:18:58.729Z,18.37
2018-05-31T18:21:03.150Z,19.60
2018-05-31T18:23:05.712Z,17.80
2018-05-31T18:25:08.915Z,20.00
2018-05-31T18:27:11.434Z,19.40
2018-05-31T18:29:13.884Z,21.17
2018-05-31T18:31:16.429Z,22.10
2018-05-31T18:33:19.617Z,19.63
2018-05-31T18:35:22.073Z,21.13
2018-05-31T18:37:25.271Z,21.27
2018-05-31T18:39:27.709Z,22.40
2018-05-31T18:41:31.301Z,21.07
2018-05-31T18:43:33.812Z,22.63
2018-05-31T18:45:36.306Z,21.63
2018-05-31T18:47:38.745Z,22.20
2018-05-31T18:49:41.945Z,23.80
2018-05-31T18:51:44.394Z,22.87
2018-05-31T18:53:47.601Z,24.00
2018-05-31T18:55:50.153Z,24.80
2018-05-31T18:57:53.345Z,22.67
2018-05-31T18:59:56.038Z,23.57
2018-05-31T19:01:58.594Z,25.77
2018-05-31T19:04:01.789Z,25.50
2018-05-31T19:06:05.947Z,23.47
2018-05-31T19:08:08.497Z,23.70
2018-05-31T19:10:11.068Z,25.20
2018-05-31T19:12:13.526Z,24.50
2018-05-31T19:14:15.968Z,24.93
2018-05-31T19:16:19.182Z,27.10
2018-05-31T19:18:27.391Z,26.63
2018-05-31T19:20:29.893Z,27.10
2018-05-31T19:22:33.120Z,24.97
2018-05-31T19:27:08.207Z,27.20
2018-05-31T19:29:11.515Z,25.83
2018-05-31T19:31:14.689Z,27.60
2018-05-31T19:33:17.132Z,26.90
2018-05-31T19:35:25.328Z,28.40
2018-05-31T19:37:27.765Z,27.37
2018-05-31T19:39:30.212Z,28.17
2018-05-31T19:41:32.652Z,26.80
2018-05-31T19:43:40.706Z,27.50
2018-05-31T19:45:43.141Z,28.83
2018-05-31T19:47:45.581Z,30.10
2018-05-31T19:49:48.015Z,29.60
2018-05-31T19:51:56.108Z,29.10
2018-05-31T19:53:58.555Z,27.60
2018-05-31T19:56:00.991Z,29.17
2018-05-31T19:58:09.325Z,28.67
2018-05-31T20:00:17.477Z,32.03
2018-05-31T20:02:25.740Z,32.70
2018-05-31T20:04:28.148Z,30.03
2018-05-31T20:06:30.594Z,29.57
2018-05-31T20:08:33.037Z,29.00
2018-05-31T20:10:35.486Z,30.63
2018-05-31T20:12:38.000Z,31.80
2018-05-31T20:14:40.426Z,31.23
2018-05-31T20:16:42.868Z,30.97
2018-05-31T20:18:46.081Z,30.90
2018-05-31T20:20:48.591Z,32.17
2018-05-31T20:22:51.054Z,29.23
2018-05-31T20:24:53.521Z,30.03
2018-05-31T20:26:55.964Z,31.70
2018-05-31T20:28:58.388Z,31.50
2018-05-31T20:31:00.839Z,32.20
2018-05-31T20:33:03.363Z,31.73
2018-05-31T20:35:06.552Z,33.47
2018-05-31T20:37:09.081Z,33.53
2018-05-31T20:39:11.641Z,34.67
2018-05-31T20:41:14.076Z,34.50
2018-05-31T20:43:16.517Z,34.63
2018-05-31T20:45:19.728Z,32.73
2018-05-31T20:47:22.936Z,32.27
2018-05-31T20:49:25.395Z,34.20
2018-05-31T20:51:27.832Z,34.83
2018-05-31T20:53:30.272Z,33.50
2018-05-31T20:55:32.725Z,31.70
2018-05-31T20:57:35.193Z,34.30
2018-05-31T20:59:37.644Z,33.50
2018-05-31T21:01:40.077Z,32.23
2018-05-31T21:03:42.531Z,34.70
2018-05-31T21:05:44.968Z,32.43
2018-05-31T21:07:47.418Z,34.33
2018-05-31T21:09:49.908Z,32.37
2018-05-31T21:11:52.362Z,33.03
2018-05-31T21:13:55.587Z,35.50
2018-05-31T21:15:58.052Z,35.00
2018-05-31T21:18:00.487Z,37.30
2018-05-31T21:20:03.040Z,35.10
2018-05-31T21:22:07.827Z,37.90
2018-05-31T21:24:10.372Z,39.90
2018-05-31T21:26:12.825Z,37.43
2018-05-31T21:28:16.029Z,41.57
2018-05-31T21:30:18.469Z,39.50
2018-05-31T21:32:21.677Z,41.90
2018-05-31T21:34:24.344Z,41.90
2018-05-31T21:36:26.789Z,42.77
2018-05-31T21:38:30.025Z,41.50
2018-05-31T21:40:32.476Z,43.60
2018-05-31T21:42:34.929Z,43.70
2018-05-31T21:44:38.261Z,41.07
2018-05-31T21:46:41.332Z,43.63
2018-05-31T21:48:43.803Z,40.80
2018-05-31T21:50:46.346Z,43.97
2018-05-31T21:52:49.548Z,41.50
2018-05-31T21:54:51.988Z,43.80
2018-05-31T21:56:55.197Z,47.73
2018-05-31T21:58:57.641Z,50.43
2018-05-31T22:01:00.851Z,47.07
2018-05-31T22:03:03.295Z,49.67
2018-05-31T22:05:06.566Z,55.13
2018-05-31T22:07:09.005Z,52.03
2018-05-31T22:09:11.456Z,52.70
2018-05-31T22:11:13.952Z,51.00
2018-05-31T22:13:16.395Z,54.70
2018-05-31T22:15:18.824Z,53.83
2018-05-31T22:17:21.277Z,53.17
2018-05-31T22:19:23.782Z,54.40
2018-05-31T22:21:26.197Z,52.73
2018-05-31T22:23:28.644Z,52.97
2018-05-31T22:25:31.084Z,55.00
2018-05-31T22:27:34.348Z,51.07
2018-05-31T22:29:36.900Z,54.03
2018-05-31T22:31:39.345Z,52.43
2018-05-31T22:33:41.866Z,51.87
2018-05-31T22:35:44.302Z,57.90
2018-05-31T22:37:46.737Z,58.47
2018-05-31T22:39:49.942Z,59.47
2018-05-31T22:41:52.437Z,55.57
2018-05-31T22:43:54.909Z,57.60
2018-05-31T22:45:57.559Z,55.23
2018-05-31T22:48:00.001Z,57.63
2018-05-31T22:50:03.242Z,57.87
2018-05-31T22:52:05.681Z,54.40
2018-05-31T22:54:08.181Z,58.63
2018-05-31T22:56:10.618Z,59.57
2018-05-31T22:58:13.061Z,55.70
2018-05-31T23:00:17.012Z,57.17
2018-05-31T23:02:19.439Z,55.20
2018-05-31T23:04:22.645Z,57.10
2018-05-31T23:06:25.085Z,59.00
2018-05-31T23:08:33.285Z,56.60
2018-05-31T23:10:35.737Z,59.00
2018-05-31T23:12:38.169Z,62.00
2018-05-31T23:14:40.629Z,65.00
2018-05-31T23:16:43.838Z,66.47
2018-05-31T23:18:46.285Z,65.13
2018-05-31T23:20:49.485Z,63.13
2018-05-31T23:22:51.943Z,69.50
2018-05-31T23:24:54.447Z,64.97
2018-05-31T23:26:56.917Z,61.43
2018-05-31T23:28:59.391Z,61.30
2018-05-31T23:31:01.853Z,61.03
2018-05-31T23:33:04.616Z,61.10
2018-05-31T23:35:07.064Z,64.27
2018-05-31T23:37:10.294Z,62.33
2018-05-31T23:39:12.737Z,63.13
2018-05-31T23:41:15.180Z,65.63
2018-05-31T23:43:18.408Z,65.90
2018-05-31T23:45:20.852Z,68.13
2018-05-31T23:47:24.081Z,66.87
2018-05-31T23:49:26.525Z,64.57
2018-05-31T23:51:28.976Z,66.80
2018-05-31T23:53:32.208Z,67.87
2018-05-31T23:55:34.669Z,64.87
2018-05-31T23:57:37.138Z,69.50
2018-05-31T23:59:39.590Z,71.77
